createdAt,value
2023-03-30T00:01:19.602Z,6.30
2023-03-30T00:06:24.928Z,6.20
2023-03-30T00:11:32.066Z,6.10
2023-03-30T00:16:37.868Z,6.10
2023-03-30T00:21:43.021Z,6.00
2023-03-30T00:26:48.285Z,5.90
2023-03-30T00:31:53.488Z,5.80
2023-03-30T00:36:58.655Z,5.80
2023-03-30T00:42:03.933Z,5.80
2023-03-30T00:47:09.237Z,5.80
2023-03-30T00:52:16.280Z,5.80
2023-03-30T00:57:24.540Z,5.80
2023-03-30T01:02:32.693Z,5.70
2023-03-30T01:07:40.435Z,5.60
2023-03-30T01:12:46.637Z,5.60
2023-03-30T01:18:16.016Z,5.60
2023-03-30T01:23:27.601Z,5.60
2023-03-30T01:28:53.401Z,5.60
2023-03-30T01:34:24.481Z,5.60
2023-03-30T01:39:49.134Z,5.70
2023-03-30T01:45:11.963Z,5.60
2023-03-30T01:50:20.506Z,5.60
2023-03-30T01:55:40.534Z,5.50
2023-03-30T02:00:51.048Z,5.50
2023-03-30T02:05:59.383Z,5.50
2023-03-30T02:11:05.874Z,5.50
2023-03-30T02:16:17.690Z,5.50
2023-03-30T02:21:23.164Z,5.50
2023-03-30T02:26:29.773Z,5.50
2023-03-30T02:31:35.183Z,5.50
2023-03-30T02:36:52.240Z,5.50
2023-03-30T02:42:12.695Z,5.40
2023-03-30T02:47:23.739Z,5.50
2023-03-30T02:52:53.200Z,5.50
2023-03-30T02:58:18.780Z,5.40
2023-03-30T03:03:33.656Z,5.40
2023-03-30T03:08:42.644Z,5.40
2023-03-30T03:13:48.921Z,5.40
2023-03-30T03:18:54.519Z,5.30
2023-03-30T03:23:59.931Z,5.30
2023-03-30T03:29:05.178Z,5.20
2023-03-30T03:34:10.339Z,5.20
2023-03-30T03:39:15.692Z,5.20
2023-03-30T03:44:21.011Z,5.10
2023-03-30T03:49:26.473Z,5.20
2023-03-30T03:54:31.613Z,5.10
2023-03-30T03:59:36.840Z,5.10
2023-03-30T04:04:42.182Z,5.00
2023-03-30T04:09:47.438Z,5.00
2023-03-30T04:14:54.210Z,5.00
2023-03-30T04:19:59.359Z,4.90
2023-03-30T04:25:05.801Z,4.90
2023-03-30T04:30:12.997Z,5.00
2023-03-30T04:35:19.360Z,5.00
2023-03-30T04:40:25.324Z,5.00
2023-03-30T04:45:31.268Z,5.10
2023-03-30T04:50:36.689Z,5.10
2023-03-30T04:55:42.501Z,5.20
2023-03-30T05:00:47.803Z,5.20
2023-03-30T05:05:53.063Z,5.20
2023-03-30T05:11:00.147Z,5.30
2023-03-30T05:16:06.531Z,5.30
2023-03-30T05:21:11.791Z,5.40
2023-03-30T05:26:17.239Z,5.40
2023-03-30T05:31:22.598Z,5.40
2023-03-30T05:36:29.063Z,5.40
2023-03-30T05:41:34.285Z,5.50
2023-03-30T05:46:39.561Z,5.60
2023-03-30T05:51:44.828Z,5.60
2023-03-30T05:56:52.238Z,5.70
2023-03-30T06:01:56.886Z,5.70
2023-03-30T06:07:02.234Z,5.80
2023-03-30T06:12:08.212Z,5.90
2023-03-30T06:17:15.732Z,6.00
2023-03-30T06:22:21.641Z,6.00
2023-03-30T06:27:26.953Z,6.10
2023-03-30T06:32:32.278Z,6.20
2023-03-30T06:37:37.635Z,6.20
2023-03-30T06:42:47.235Z,6.30
2023-03-30T06:47:52.610Z,6.40
2023-03-30T06:52:57.940Z,6.50
2023-03-30T06:58:03.503Z,6.40
2023-03-30T07:03:09.050Z,6.50
2023-03-30T07:08:14.633Z,6.60
2023-03-30T07:13:20.317Z,6.70
2023-03-30T07:18:26.471Z,6.80
2023-03-30T07:23:31.798Z,6.80
2023-03-30T07:28:45.428Z,6.90
2023-03-30T07:33:51.224Z,7.00
2023-03-30T07:38:58.648Z,7.20
2023-03-30T07:44:04.074Z,7.30
2023-03-30T07:49:09.672Z,7.50
2023-03-30T07:54:15.286Z,7.70
2023-03-30T07:59:22.086Z,7.80
2023-03-30T08:04:28.412Z,8.10
2023-03-30T08:09:33.741Z,8.50
2023-03-30T08:14:39.768Z,8.80
2023-03-30T08:19:45.751Z,8.90
2023-03-30T08:24:51.474Z,8.90
2023-03-30T08:29:56.888Z,9.00
2023-03-30T08:35:02.798Z,9.00
2023-03-30T08:40:10.584Z,9.00
2023-03-30T08:45:16.040Z,8.90
2023-03-30T08:50:36.070Z,8.70
2023-03-30T08:55:53.139Z,8.60
2023-03-30T09:01:27.375Z,8.80
2023-03-30T09:06:55.467Z,9.10
2023-03-30T09:12:09.562Z,9.20
2023-03-30T09:17:24.052Z,9.70
2023-03-30T09:22:35.807Z,10.10
2023-03-30T09:27:53.020Z,10.60
2023-03-30T09:33:03.791Z,11.00
2023-03-30T09:38:14.882Z,11.00
2023-03-30T09:43:35.405Z,10.70
2023-03-30T09:48:43.193Z,10.90
2023-03-30T09:53:50.962Z,10.90
2023-03-30T09:58:56.903Z,11.00
2023-03-30T10:04:12.905Z,10.90
2023-03-30T10:09:21.321Z,10.90
2023-03-30T10:14:37.299Z,10.80
2023-03-30T10:19:48.182Z,10.80
2023-03-30T10:24:57.699Z,10.80
2023-03-30T10:30:11.375Z,10.80
2023-03-30T10:35:22.187Z,10.80
2023-03-30T10:40:39.438Z,10.90
2023-03-30T10:46:01.491Z,11.10
2023-03-30T10:51:18.469Z,11.30
2023-03-30T10:56:38.925Z,11.60
2023-03-30T11:02:09.852Z,12.00
2023-03-30T11:07:20.850Z,12.10
2023-03-30T11:12:29.175Z,12.00
2023-03-30T11:17:37.603Z,11.70
2023-03-30T11:22:52.092Z,11.50
2023-03-30T11:28:17.555Z,11.60
2023-03-30T11:33:37.600Z,11.60
2023-03-30T11:38:51.969Z,11.70
2023-03-30T11:43:58.071Z,12.20
2023-03-30T11:49:27.743Z,12.40
2023-03-30T11:54:49.609Z,12.20
2023-03-30T11:59:51.607Z,12.10
2023-03-30T12:05:03.103Z,12.20
2023-03-30T12:10:12.078Z,12.30
2023-03-30T12:15:29.394Z,12.30
2023-03-30T12:21:02.698Z,12.30
2023-03-30T12:26:14.898Z,12.20
2023-03-30T12:31:22.319Z,12.20
2023-03-30T12:36:51.956Z,12.10
2023-03-30T12:42:15.174Z,11.90
2023-03-30T12:47:43.875Z,11.90
2023-03-30T12:53:11.402Z,12.00
2023-03-30T12:58:53.809Z,12.00
2023-03-30T13:04:09.653Z,12.20
2023-03-30T13:09:34.428Z,12.40
2023-03-30T13:14:46.677Z,12.60
2023-03-30T13:20:29.173Z,12.50
2023-03-30T13:25:43.905Z,12.50
2023-03-30T13:30:50.575Z,12.40
2023-03-30T13:36:24.058Z,12.40
2023-03-30T13:41:59.762Z,12.40
2023-03-30T13:47:14.082Z,12.40
2023-03-30T13:52:23.387Z,12.30
2023-03-30T13:57:41.643Z,12.30
2023-03-30T14:02:50.325Z,12.40
2023-03-30T14:07:59.984Z,12.40
2023-03-30T14:13:08.534Z,12.10
2023-03-30T14:18:23.196Z,12.00
2023-03-30T14:23:41.616Z,12.00
2023-03-30T14:28:47.709Z,12.00
2023-03-30T14:33:53.540Z,11.90
2023-03-30T14:38:59.498Z,12.00
2023-03-30T14:44:07.833Z,12.00
2023-03-30T14:49:16.314Z,12.00
2023-03-30T14:54:24.176Z,11.90
2023-03-30T14:59:32.297Z,11.90
2023-03-30T15:04:40.652Z,11.80
2023-03-30T15:09:47.627Z,11.90
2023-03-30T15:15:00.407Z,12.00
2023-03-30T15:20:14.230Z,12.20
2023-03-30T15:25:33.775Z,12.40
2023-03-30T15:30:53.877Z,12.40
2023-03-30T15:36:08.305Z,12.40
2023-03-30T15:41:18.572Z,12.40
2023-03-30T15:46:29.687Z,12.40
2023-03-30T15:51:46.647Z,12.40
2023-03-30T15:57:14.143Z,12.40
2023-03-30T16:02:34.093Z,12.40
2023-03-30T16:07:41.173Z,12.20
2023-03-30T16:12:54.821Z,12.10
2023-03-30T16:18:02.348Z,12.00
2023-03-30T16:23:08.837Z,12.00
2023-03-30T16:28:22.323Z,11.90
2023-03-30T16:33:32.327Z,11.80
2023-03-30T16:38:39.166Z,11.70
2023-03-30T16:43:57.834Z,11.70
2023-03-30T16:49:05.207Z,11.60
2023-03-30T16:54:29.337Z,11.50
2023-03-30T16:59:25.557Z,11.40
2023-03-30T17:04:31.034Z,11.40
2023-03-30T17:09:36.822Z,11.30
2023-03-30T17:14:43.919Z,11.30
2023-03-30T17:19:49.282Z,11.20
2023-03-30T17:24:54.779Z,11.10
2023-03-30T17:30:00.264Z,11.00
2023-03-30T17:35:06.464Z,10.90
2023-03-30T17:40:21.522Z,10.90
2023-03-30T17:45:29.568Z,10.80
2023-03-30T17:50:39.736Z,10.80
2023-03-30T17:55:47.231Z,10.70
2023-03-30T18:00:53.790Z,10.60
2023-03-30T18:06:00.840Z,10.60
2023-03-30T18:11:07.353Z,10.60
2023-03-30T18:16:13.351Z,10.50
2023-03-30T18:21:18.878Z,10.40
2023-03-30T18:26:24.894Z,10.40
2023-03-30T18:31:30.494Z,10.50
2023-03-30T18:36:36.007Z,10.40
2023-03-30T18:41:41.676Z,10.30
2023-03-30T18:46:50.095Z,10.30
2023-03-30T18:51:55.748Z,10.20
2023-03-30T18:57:01.374Z,10.20
2023-03-30T19:02:07.679Z,10.10
2023-03-30T19:07:14.715Z,10.20
2023-03-30T19:12:20.162Z,10.10
2023-03-30T19:17:25.852Z,10.20
2023-03-30T19:22:31.316Z,10.10
2023-03-30T19:27:36.987Z,10.10
2023-03-30T19:32:43.398Z,10.20
2023-03-30T19:37:48.812Z,10.20
2023-03-30T19:42:54.191Z,10.20
2023-03-30T19:47:59.837Z,10.30
2023-03-30T19:53:05.254Z,10.40
2023-03-30T19:58:13.777Z,10.40
2023-03-30T20:03:19.214Z,10.40
2023-03-30T20:08:25.894Z,10.40
2023-03-30T20:13:31.362Z,10.40
2023-03-30T20:18:38.275Z,10.40
2023-03-30T20:23:43.663Z,10.40
2023-03-30T20:28:49.481Z,10.30
2023-03-30T20:33:55.751Z,10.30
2023-03-30T20:39:01.304Z,10.20
2023-03-30T20:44:12.627Z,10.20
2023-03-30T20:49:17.931Z,10.10
2023-03-30T20:54:23.801Z,10.10
2023-03-30T20:59:29.195Z,10.00
2023-03-30T21:04:34.833Z,10.00
2023-03-30T21:09:41.591Z,10.00
2023-03-30T21:14:46.976Z,9.90
2023-03-30T21:19:52.592Z,9.90
2023-03-30T21:24:57.941Z,9.80
2023-03-30T21:30:03.287Z,9.80
2023-03-30T21:35:09.397Z,9.70
2023-03-30T21:40:15.154Z,9.70
2023-03-30T21:45:21.156Z,9.70
2023-03-30T21:50:26.638Z,9.70
2023-03-30T21:55:32.127Z,9.70
2023-03-30T22:00:38.995Z,9.70
2023-03-30T22:05:44.811Z,9.80
2023-03-30T22:11:03.379Z,9.80
2023-03-30T22:16:17.443Z,9.80
2023-03-30T22:21:25.701Z,9.80
2023-03-30T22:26:31.378Z,9.80
2023-03-30T22:31:36.854Z,9.80
2023-03-30T22:36:43.792Z,9.80
2023-03-30T22:41:48.899Z,9.80
2023-03-30T22:46:54.340Z,9.80
2023-03-30T22:52:01.320Z,9.80
2023-03-30T22:57:06.623Z,9.80
2023-03-30T23:02:12.408Z,9.80
2023-03-30T23:07:17.704Z,9.80
2023-03-30T23:12:22.966Z,9.80
2023-03-30T23:17:30.263Z,9.80
2023-03-30T23:22:35.637Z,9.80
2023-03-30T23:27:41.058Z,9.80
2023-03-30T23:32:46.419Z,9.80
2023-03-30T23:37:52.963Z,9.90
2023-03-30T23:42:58.761Z,9.90
2023-03-30T23:48:04.224Z,9.80
2023-03-30T23:53:10.706Z,9.80
2023-03-30T23:58:16.833Z,9.80
